Terminal Aerodrome Forecast
Issued by NWS

Home | Current Version | Previous Version | Text Only | Print | Product List | Glossary On
Versions: 1 2 3 4 5 6 7 8 9 10 11 12 13 14 15 16 17 18 19 20
000
FTUS43 KDTX 010520
TAFPTK
TAF
KPTK 010520Z 0106/0206 07007KT 6SM -SHRA OVC007
     FM010800 07005KT 4SM -SHRA BR OVC004
     FM011300 08005KT 4SM -SHRA BR OVC007
     FM011700 10005KT 6SM -SHRA OVC015
     FM012200 13005KT 6SM -SHRA BKN025 OVC040
     FM020100 18005KT P6SM BKN040 BKN080=

USA.gov is the U.S. government's official web portal to all federal, state and local government web resources and services.